sensor_id;sensor_type;location;lat;lon;timestamp;P1;durP1;ratioP1;P2;durP2;ratioP2
53253;SDS011;39148;53.332;6.922;2022-12-19T00:03:43;14.65;;;9.50;;
53253;SDS011;39148;53.332;6.922;2022-12-19T00:06:10;15.15;;;8.95;;
53253;SDS011;39148;53.332;6.922;2022-12-19T00:08:37;16.15;;;9.93;;
53253;SDS011;39148;53.332;6.922;2022-12-19T00:11:03;16.13;;;9.48;;
53253;SDS011;39148;53.332;6.922;2022-12-19T00:13:29;16.02;;;9.93;;
53253;SDS011;39148;53.332;6.922;2022-12-19T00:15:59;16.35;;;10.48;;
53253;SDS011;39148;53.332;6.922;2022-12-19T00:18:26;16.02;;;10.35;;
53253;SDS011;39148;53.332;6.922;2022-12-19T00:20:53;15.90;;;9.93;;
53253;SDS011;39148;53.332;6.922;2022-12-19T00:23:19;16.55;;;10.45;;
53253;SDS011;39148;53.332;6.922;2022-12-19T00:25:45;15.52;;;10.00;;
53253;SDS011;39148;53.332;6.922;2022-12-19T00:28:11;17.85;;;11.80;;
53253;SDS011;39148;53.332;6.922;2022-12-19T00:30:37;14.80;;;9.77;;
53253;SDS011;39148;53.332;6.922;2022-12-19T00:33:03;16.30;;;10.15;;
53253;SDS011;39148;53.332;6.922;2022-12-19T00:35:29;16.33;;;10.45;;
53253;SDS011;39148;53.332;6.922;2022-12-19T00:37:56;16.00;;;10.27;;
53253;SDS011;39148;53.332;6.922;2022-12-19T00:40:22;15.82;;;10.15;;
53253;SDS011;39148;53.332;6.922;2022-12-19T00:42:48;17.92;;;11.10;;
53253;SDS011;39148;53.332;6.922;2022-12-19T00:45:14;17.38;;;10.80;;
53253;SDS011;39148;53.332;6.922;2022-12-19T00:47:40;16.60;;;10.63;;
53253;SDS011;39148;53.332;6.922;2022-12-19T00:50:06;15.07;;;9.40;;
53253;SDS011;39148;53.332;6.922;2022-12-19T00:52:32;15.93;;;10.10;;
53253;SDS011;39148;53.332;6.922;2022-12-19T00:54:58;17.05;;;11.20;;
53253;SDS011;39148;53.332;6.922;2022-12-19T00:57:24;16.95;;;11.05;;
53253;SDS011;39148;53.332;6.922;2022-12-19T00:59:50;17.48;;;11.15;;
53253;SDS011;39148;53.332;6.922;2022-12-19T01:02:15;18.42;;;11.10;;
53253;SDS011;39148;53.332;6.922;2022-12-19T01:04:42;17.98;;;10.52;;
53253;SDS011;39148;53.332;6.922;2022-12-19T01:07:08;17.50;;;11.10;;
53253;SDS011;39148;53.332;6.922;2022-12-19T01:09:34;17.98;;;11.50;;
53253;SDS011;39148;53.332;6.922;2022-12-19T01:12:02;16.45;;;10.57;;
53253;SDS011;39148;53.332;6.922;2022-12-19T01:14:46;17.95;;;11.48;;
53253;SDS011;39148;53.332;6.922;2022-12-19T01:17:12;17.90;;;11.60;;
53253;SDS011;39148;53.332;6.922;2022-12-19T01:19:39;20.63;;;12.20;;
53253;SDS011;39148;53.332;6.922;2022-12-19T01:22:05;18.30;;;11.88;;
53253;SDS011;39148;53.332;6.922;2022-12-19T01:24:31;18.23;;;11.07;;
53253;SDS011;39148;53.332;6.922;2022-12-19T01:26:57;17.98;;;11.57;;
53253;SDS011;39148;53.332;6.922;2022-12-19T01:29:23;18.33;;;10.95;;
53253;SDS011;39148;53.332;6.922;2022-12-19T01:31:49;16.02;;;10.85;;
53253;SDS011;39148;53.332;6.922;2022-12-19T01:34:15;22.45;;;11.98;;
53253;SDS011;39148;53.332;6.922;2022-12-19T01:36:41;20.50;;;12.25;;
53253;SDS011;39148;53.332;6.922;2022-12-19T01:39:07;18.58;;;11.35;;
53253;SDS011;39148;53.332;6.922;2022-12-19T01:41:33;18.90;;;11.27;;
53253;SDS011;39148;53.332;6.922;2022-12-19T01:44:01;19.90;;;11.98;;
53253;SDS011;39148;53.332;6.922;2022-12-19T01:46:30;19.55;;;12.30;;
53253;SDS011;39148;53.332;6.922;2022-12-19T01:49:00;19.65;;;11.93;;
53253;SDS011;39148;53.332;6.922;2022-12-19T01:51:31;19.92;;;12.68;;
53253;SDS011;39148;53.332;6.922;2022-12-19T01:53:59;18.73;;;11.57;;
53253;SDS011;39148;53.332;6.922;2022-12-19T01:56:27;19.52;;;12.07;;
53253;SDS011;39148;53.332;6.922;2022-12-19T01:58:54;18.67;;;11.32;;
53253;SDS011;39148;53.332;6.922;2022-12-19T02:01:21;19.40;;;12.18;;
53253;SDS011;39148;53.332;6.922;2022-12-19T02:03:48;19.30;;;11.48;;
53253;SDS011;39148;53.332;6.922;2022-12-19T02:06:15;22.23;;;13.07;;
53253;SDS011;39148;53.332;6.922;2022-12-19T02:08:42;20.92;;;12.30;;
53253;SDS011;39148;53.332;6.922;2022-12-19T02:11:10;19.17;;;12.07;;
53253;SDS011;39148;53.332;6.922;2022-12-19T02:13:36;21.48;;;12.32;;
53253;SDS011;39148;53.332;6.922;2022-12-19T02:34:30;17.98;;;12.05;;
53253;SDS011;39148;53.332;6.922;2022-12-19T02:37:01;18.55;;;11.93;;
53253;SDS011;39148;53.332;6.922;2022-12-19T02:41:58;19.42;;;11.65;;
53253;SDS011;39148;53.332;6.922;2022-12-19T02:44:32;18.35;;;11.85;;
53253;SDS011;39148;53.332;6.922;2022-12-19T02:47:10;17.55;;;11.65;;
53253;SDS011;39148;53.332;6.922;2022-12-19T02:49:37;21.45;;;12.40;;
53253;SDS011;39148;53.332;6.922;2022-12-19T02:52:10;20.10;;;12.20;;
53253;SDS011;39148;53.332;6.922;2022-12-19T02:54:36;20.95;;;12.85;;
53253;SDS011;39148;53.332;6.922;2022-12-19T03:05:13;19.98;;;12.55;;
53253;SDS011;39148;53.332;6.922;2022-12-19T03:10:31;20.38;;;12.60;;
53253;SDS011;39148;53.332;6.922;2022-12-19T03:15:34;20.77;;;13.40;;
53253;SDS011;39148;53.332;6.922;2022-12-19T03:18:00;22.50;;;13.25;;
53253;SDS011;39148;53.332;6.922;2022-12-19T03:23:04;20.65;;;12.85;;
53253;SDS011;39148;53.332;6.922;2022-12-19T03:25:31;21.98;;;12.73;;
53253;SDS011;39148;53.332;6.922;2022-12-19T03:27:59;19.17;;;12.20;;
53253;SDS011;39148;53.332;6.922;2022-12-19T03:30:26;23.30;;;13.43;;
53253;SDS011;39148;53.332;6.922;2022-12-19T03:32:53;22.08;;;13.55;;
53253;SDS011;39148;53.332;6.922;2022-12-19T03:35:20;20.55;;;12.75;;
53253;SDS011;39148;53.332;6.922;2022-12-19T03:37:48;20.75;;;12.85;;
53253;SDS011;39148;53.332;6.922;2022-12-19T03:40:16;22.27;;;13.20;;
53253;SDS011;39148;53.332;6.922;2022-12-19T03:42:44;20.88;;;12.52;;
53253;SDS011;39148;53.332;6.922;2022-12-19T03:46:17;20.70;;;12.88;;
53253;SDS011;39148;53.332;6.922;2022-12-19T03:48:34;20.85;;;12.32;;
53253;SDS011;39148;53.332;6.922;2022-12-19T03:51:08;22.15;;;12.75;;
53253;SDS011;39148;53.332;6.922;2022-12-19T03:56:24;20.95;;;13.20;;
53253;SDS011;39148;53.332;6.922;2022-12-19T03:58:54;20.13;;;11.95;;
53253;SDS011;39148;53.332;6.922;2022-12-19T04:01:25;22.63;;;13.38;;
53253;SDS011;39148;53.332;6.922;2022-12-19T04:03:51;19.13;;;12.55;;
53253;SDS011;39148;53.332;6.922;2022-12-19T04:06:17;20.58;;;13.30;;
53253;SDS011;39148;53.332;6.922;2022-12-19T04:08:43;21.33;;;12.65;;
53253;SDS011;39148;53.332;6.922;2022-12-19T04:11:12;21.05;;;12.32;;
53253;SDS011;39148;53.332;6.922;2022-12-19T04:13:41;19.50;;;12.35;;
53253;SDS011;39148;53.332;6.922;2022-12-19T04:16:19;20.85;;;12.85;;
53253;SDS011;39148;53.332;6.922;2022-12-19T04:18:58;20.10;;;12.05;;
53253;SDS011;39148;53.332;6.922;2022-12-19T04:21:32;20.92;;;12.55;;
53253;SDS011;39148;53.332;6.922;2022-12-19T04:24:09;20.85;;;13.15;;
53253;SDS011;39148;53.332;6.922;2022-12-19T04:26:38;19.75;;;11.82;;
53253;SDS011;39148;53.332;6.922;2022-12-19T04:29:05;20.58;;;12.23;;
53253;SDS011;39148;53.332;6.922;2022-12-19T04:31:32;21.15;;;13.13;;
53253;SDS011;39148;53.332;6.922;2022-12-19T04:34:00;20.48;;;12.38;;
53253;SDS011;39148;53.332;6.922;2022-12-19T04:36:26;18.17;;;12.55;;
53253;SDS011;39148;53.332;6.922;2022-12-19T04:38:52;21.90;;;12.95;;
53253;SDS011;39148;53.332;6.922;2022-12-19T04:41:18;21.20;;;12.95;;
53253;SDS011;39148;53.332;6.922;2022-12-19T04:43:44;21.08;;;13.18;;
53253;SDS011;39148;53.332;6.922;2022-12-19T04:46:10;19.52;;;12.90;;
53253;SDS011;39148;53.332;6.922;2022-12-19T04:48:36;19.98;;;13.00;;
53253;SDS011;39148;53.332;6.922;2022-12-19T04:51:03;23.23;;;13.00;;
53253;SDS011;39148;53.332;6.922;2022-12-19T04:53:29;20.75;;;14.02;;
53253;SDS011;39148;53.332;6.922;2022-12-19T04:55:59;22.00;;;13.30;;
53253;SDS011;39148;53.332;6.922;2022-12-19T04:58:25;20.15;;;12.90;;
53253;SDS011;39148;53.332;6.922;2022-12-19T05:00:51;21.88;;;13.63;;
53253;SDS011;39148;53.332;6.922;2022-12-19T05:03:17;18.70;;;12.48;;
53253;SDS011;39148;53.332;6.922;2022-12-19T05:05:43;20.45;;;12.98;;
53253;SDS011;39148;53.332;6.922;2022-12-19T05:08:09;21.45;;;13.35;;
53253;SDS011;39148;53.332;6.922;2022-12-19T05:10:35;21.83;;;13.60;;
53253;SDS011;39148;53.332;6.922;2022-12-19T05:13:02;22.58;;;13.85;;
53253;SDS011;39148;53.332;6.922;2022-12-19T05:15:28;22.92;;;14.00;;
53253;SDS011;39148;53.332;6.922;2022-12-19T05:17:54;21.00;;;13.00;;
53253;SDS011;39148;53.332;6.922;2022-12-19T05:20:20;22.13;;;13.68;;
53253;SDS011;39148;53.332;6.922;2022-12-19T05:22:46;18.77;;;12.20;;
53253;SDS011;39148;53.332;6.922;2022-12-19T05:25:12;21.73;;;13.13;;
53253;SDS011;39148;53.332;6.922;2022-12-19T05:27:39;20.55;;;14.02;;
53253;SDS011;39148;53.332;6.922;2022-12-19T05:30:05;20.88;;;13.13;;
53253;SDS011;39148;53.332;6.922;2022-12-19T05:32:31;22.05;;;13.85;;
53253;SDS011;39148;53.332;6.922;2022-12-19T05:34:58;20.33;;;12.57;;
53253;SDS011;39148;53.332;6.922;2022-12-19T05:37:25;21.80;;;13.50;;
53253;SDS011;39148;53.332;6.922;2022-12-19T05:39:51;22.27;;;13.00;;
53253;SDS011;39148;53.332;6.922;2022-12-19T05:42:17;20.48;;;12.43;;
53253;SDS011;39148;53.332;6.922;2022-12-19T05:44:43;21.48;;;13.82;;
53253;SDS011;39148;53.332;6.922;2022-12-19T05:47:09;19.35;;;12.68;;
53253;SDS011;39148;53.332;6.922;2022-12-19T05:49:34;19.92;;;12.68;;
53253;SDS011;39148;53.332;6.922;2022-12-19T05:52:00;19.17;;;12.18;;
53253;SDS011;39148;53.332;6.922;2022-12-19T05:54:26;19.48;;;12.75;;
53253;SDS011;39148;53.332;6.922;2022-12-19T05:56:52;18.80;;;12.38;;
53253;SDS011;39148;53.332;6.922;2022-12-19T05:59:18;19.65;;;12.52;;
53253;SDS011;39148;53.332;6.922;2022-12-19T06:01:44;19.38;;;12.27;;
53253;SDS011;39148;53.332;6.922;2022-12-19T06:04:10;22.40;;;13.80;;
53253;SDS011;39148;53.332;6.922;2022-12-19T06:06:36;19.52;;;12.63;;
53253;SDS011;39148;53.332;6.922;2022-12-19T06:09:02;20.40;;;12.52;;
53253;SDS011;39148;53.332;6.922;2022-12-19T06:11:28;21.70;;;14.02;;
53253;SDS011;39148;53.332;6.922;2022-12-19T06:13:54;19.70;;;13.05;;
53253;SDS011;39148;53.332;6.922;2022-12-19T06:16:21;18.33;;;11.90;;
53253;SDS011;39148;53.332;6.922;2022-12-19T06:18:47;18.63;;;12.18;;
53253;SDS011;39148;53.332;6.922;2022-12-19T06:21:14;19.67;;;12.07;;
53253;SDS011;39148;53.332;6.922;2022-12-19T06:23:41;19.00;;;11.60;;
53253;SDS011;39148;53.332;6.922;2022-12-19T06:26:07;19.52;;;12.30;;
53253;SDS011;39148;53.332;6.922;2022-12-19T06:28:35;18.05;;;12.35;;
53253;SDS011;39148;53.332;6.922;2022-12-19T06:31:01;18.40;;;12.20;;
53253;SDS011;39148;53.332;6.922;2022-12-19T06:33:28;18.25;;;12.13;;
53253;SDS011;39148;53.332;6.922;2022-12-19T06:38:24;18.55;;;11.98;;
53253;SDS011;39148;53.332;6.922;2022-12-19T06:40:50;17.40;;;11.68;;
53253;SDS011;39148;53.332;6.922;2022-12-19T06:43:35;18.23;;;11.70;;
53253;SDS011;39148;53.332;6.922;2022-12-19T06:46:01;18.35;;;11.75;;
53253;SDS011;39148;53.332;6.922;2022-12-19T06:48:27;19.23;;;11.13;;
53253;SDS011;39148;53.332;6.922;2022-12-19T06:50:53;17.08;;;11.38;;
53253;SDS011;39148;53.332;6.922;2022-12-19T06:53:19;16.88;;;11.13;;
53253;SDS011;39148;53.332;6.922;2022-12-19T06:55:45;17.13;;;11.07;;
53253;SDS011;39148;53.332;6.922;2022-12-19T06:58:12;16.73;;;11.55;;
53253;SDS011;39148;53.332;6.922;2022-12-19T07:00:38;16.67;;;11.45;;
53253;SDS011;39148;53.332;6.922;2022-12-19T07:03:04;15.10;;;10.68;;
53253;SDS011;39148;53.332;6.922;2022-12-19T07:05:31;16.65;;;10.93;;
53253;SDS011;39148;53.332;6.922;2022-12-19T07:07:57;15.77;;;10.95;;
53253;SDS011;39148;53.332;6.922;2022-12-19T07:10:23;17.25;;;11.45;;
53253;SDS011;39148;53.332;6.922;2022-12-19T07:12:49;16.85;;;11.02;;
53253;SDS011;39148;53.332;6.922;2022-12-19T07:15:15;15.95;;;10.35;;
53253;SDS011;39148;53.332;6.922;2022-12-19T07:17:41;16.98;;;10.32;;
53253;SDS011;39148;53.332;6.922;2022-12-19T07:20:07;16.65;;;10.73;;
53253;SDS011;39148;53.332;6.922;2022-12-19T07:22:34;15.27;;;10.25;;
53253;SDS011;39148;53.332;6.922;2022-12-19T07:25:01;15.10;;;9.75;;
53253;SDS011;39148;53.332;6.922;2022-12-19T07:27:27;16.08;;;10.45;;
53253;SDS011;39148;53.332;6.922;2022-12-19T07:29:53;15.82;;;10.30;;
53253;SDS011;39148;53.332;6.922;2022-12-19T07:32:20;14.55;;;9.63;;
53253;SDS011;39148;53.332;6.922;2022-12-19T07:34:46;14.60;;;9.90;;
53253;SDS011;39148;53.332;6.922;2022-12-19T07:37:12;14.68;;;9.70;;
53253;SDS011;39148;53.332;6.922;2022-12-19T07:39:38;15.07;;;9.75;;
53253;SDS011;39148;53.332;6.922;2022-12-19T07:42:04;15.65;;;10.18;;
53253;SDS011;39148;53.332;6.922;2022-12-19T07:44:30;14.20;;;9.70;;
53253;SDS011;39148;53.332;6.922;2022-12-19T07:46:56;14.43;;;9.57;;
53253;SDS011;39148;53.332;6.922;2022-12-19T07:49:22;13.82;;;8.82;;
53253;SDS011;39148;53.332;6.922;2022-12-19T07:51:48;14.18;;;9.25;;
53253;SDS011;39148;53.332;6.922;2022-12-19T07:54:14;13.82;;;8.38;;
53253;SDS011;39148;53.332;6.922;2022-12-19T07:56:41;13.57;;;8.70;;
53253;SDS011;39148;53.332;6.922;2022-12-19T07:59:07;15.52;;;8.68;;
53253;SDS011;39148;53.332;6.922;2022-12-19T08:01:32;13.90;;;8.65;;
53253;SDS011;39148;53.332;6.922;2022-12-19T08:03:58;12.48;;;8.13;;
53253;SDS011;39148;53.332;6.922;2022-12-19T08:06:24;12.88;;;8.23;;
53253;SDS011;39148;53.332;6.922;2022-12-19T08:08:51;11.65;;;7.70;;
53253;SDS011;39148;53.332;6.922;2022-12-19T08:11:18;12.70;;;8.48;;
53253;SDS011;39148;53.332;6.922;2022-12-19T08:13:50;11.93;;;7.78;;
53253;SDS011;39148;53.332;6.922;2022-12-19T08:16:16;11.68;;;7.60;;
53253;SDS011;39148;53.332;6.922;2022-12-19T08:18:42;10.65;;;6.88;;
53253;SDS011;39148;53.332;6.922;2022-12-19T08:21:09;11.15;;;7.55;;
53253;SDS011;39148;53.332;6.922;2022-12-19T08:23:35;12.32;;;7.72;;
53253;SDS011;39148;53.332;6.922;2022-12-19T08:26:07;11.55;;;7.38;;
53253;SDS011;39148;53.332;6.922;2022-12-19T08:28:33;10.93;;;6.95;;
53253;SDS011;39148;53.332;6.922;2022-12-19T08:31:08;11.05;;;7.15;;
53253;SDS011;39148;53.332;6.922;2022-12-19T08:33:34;10.77;;;6.97;;
53253;SDS011;39148;53.332;6.922;2022-12-19T08:36:04;10.82;;;7.45;;
53253;SDS011;39148;53.332;6.922;2022-12-19T08:38:34;10.13;;;6.43;;
53253;SDS011;39148;53.332;6.922;2022-12-19T08:41:01;10.73;;;6.55;;
53253;SDS011;39148;53.332;6.922;2022-12-19T08:43:27;12.98;;;6.95;;
53253;SDS011;39148;53.332;6.922;2022-12-19T08:45:54;8.77;;;6.22;;
53253;SDS011;39148;53.332;6.922;2022-12-19T08:48:20;9.35;;;6.05;;
53253;SDS011;39148;53.332;6.922;2022-12-19T08:50:55;9.55;;;6.07;;
53253;SDS011;39148;53.332;6.922;2022-12-19T08:53:22;8.65;;;6.10;;
53253;SDS011;39148;53.332;6.922;2022-12-19T08:55:52;9.43;;;5.95;;
53253;SDS011;39148;53.332;6.922;2022-12-19T08:58:19;9.20;;;5.93;;
53253;SDS011;39148;53.332;6.922;2022-12-19T09:00:45;9.77;;;6.10;;
53253;SDS011;39148;53.332;6.922;2022-12-19T09:03:11;9.40;;;6.10;;
53253;SDS011;39148;53.332;6.922;2022-12-19T09:05:37;9.68;;;5.60;;
53253;SDS011;39148;53.332;6.922;2022-12-19T09:08:03;9.43;;;5.93;;
53253;SDS011;39148;53.332;6.922;2022-12-19T09:10:30;8.23;;;5.68;;
53253;SDS011;39148;53.332;6.922;2022-12-19T09:12:56;9.63;;;5.55;;
53253;SDS011;39148;53.332;6.922;2022-12-19T09:15:23;9.13;;;5.88;;
53253;SDS011;39148;53.332;6.922;2022-12-19T09:17:49;8.18;;;5.45;;
53253;SDS011;39148;53.332;6.922;2022-12-19T09:20:14;8.77;;;5.78;;
53253;SDS011;39148;53.332;6.922;2022-12-19T09:22:40;8.27;;;5.50;;
53253;SDS011;39148;53.332;6.922;2022-12-19T09:25:06;8.45;;;5.60;;
53253;SDS011;39148;53.332;6.922;2022-12-19T09:27:33;7.00;;;4.85;;
53253;SDS011;39148;53.332;6.922;2022-12-19T09:29:59;7.10;;;4.88;;
53253;SDS011;39148;53.332;6.922;2022-12-19T09:32:25;8.13;;;4.97;;
53253;SDS011;39148;53.332;6.922;2022-12-19T09:34:51;6.82;;;4.50;;
53253;SDS011;39148;53.332;6.922;2022-12-19T09:37:17;7.45;;;4.68;;
53253;SDS011;39148;53.332;6.922;2022-12-19T09:39:44;7.38;;;4.85;;
53253;SDS011;39148;53.332;6.922;2022-12-19T09:47:49;7.38;;;4.97;;
53253;SDS011;39148;53.332;6.922;2022-12-19T09:49:57;7.20;;;4.32;;
53253;SDS011;39148;53.332;6.922;2022-12-19T09:52:34;7.32;;;4.57;;
53253;SDS011;39148;53.332;6.922;2022-12-19T10:00:09;6.53;;;3.97;;
53253;SDS011;39148;53.332;6.922;2022-12-19T10:02:38;7.10;;;4.88;;
53253;SDS011;39148;53.332;6.922;2022-12-19T10:05:11;7.18;;;4.93;;
53253;SDS011;39148;53.332;6.922;2022-12-19T10:07:39;7.13;;;4.20;;
53253;SDS011;39148;53.332;6.922;2022-12-19T10:10:05;6.43;;;3.80;;
53253;SDS011;39148;53.332;6.922;2022-12-19T10:20:48;6.18;;;4.07;;
53253;SDS011;39148;53.332;6.922;2022-12-19T10:26:22;6.63;;;4.57;;
53253;SDS011;39148;53.332;6.922;2022-12-19T10:31:20;7.07;;;4.22;;
53253;SDS011;39148;53.332;6.922;2022-12-19T10:36:16;5.78;;;3.90;;
53253;SDS011;39148;53.332;6.922;2022-12-19T10:39:04;6.50;;;4.32;;
53253;SDS011;39148;53.332;6.922;2022-12-19T10:41:29;7.13;;;4.47;;
53253;SDS011;39148;53.332;6.922;2022-12-19T10:44:03;6.78;;;4.35;;
53253;SDS011;39148;53.332;6.922;2022-12-19T10:46:41;7.10;;;4.28;;
53253;SDS011;39148;53.332;6.922;2022-12-19T10:49:21;6.93;;;4.60;;
53253;SDS011;39148;53.332;6.922;2022-12-19T10:54:21;6.07;;;4.10;;
53253;SDS011;39148;53.332;6.922;2022-12-19T10:56:47;6.97;;;4.53;;
53253;SDS011;39148;53.332;6.922;2022-12-19T10:59:17;6.22;;;4.28;;
53253;SDS011;39148;53.332;6.922;2022-12-19T11:01:43;6.65;;;4.32;;
53253;SDS011;39148;53.332;6.922;2022-12-19T11:04:12;6.72;;;4.47;;
53253;SDS011;39148;53.332;6.922;2022-12-19T11:11:44;7.40;;;4.57;;
53253;SDS011;39148;53.332;6.922;2022-12-19T11:14:25;7.43;;;4.25;;
53253;SDS011;39148;53.332;6.922;2022-12-19T11:16:51;7.95;;;4.70;;
53253;SDS011;39148;53.332;6.922;2022-12-19T11:19:25;6.80;;;4.53;;
53253;SDS011;39148;53.332;6.922;2022-12-19T11:21:52;7.35;;;4.68;;
53253;SDS011;39148;53.332;6.922;2022-12-19T11:24:22;7.70;;;4.60;;
53253;SDS011;39148;53.332;6.922;2022-12-19T11:26:50;7.32;;;4.53;;
53253;SDS011;39148;53.332;6.922;2022-12-19T11:31:45;6.25;;;4.32;;
53253;SDS011;39148;53.332;6.922;2022-12-19T11:34:14;7.10;;;4.15;;
53253;SDS011;39148;53.332;6.922;2022-12-19T11:36:46;7.60;;;4.47;;
53253;SDS011;39148;53.332;6.922;2022-12-19T11:42:30;6.45;;;4.15;;
53253;SDS011;39148;53.332;6.922;2022-12-19T11:44:59;6.43;;;4.65;;
53253;SDS011;39148;53.332;6.922;2022-12-19T11:49:55;7.28;;;4.70;;
53253;SDS011;39148;53.332;6.922;2022-12-19T11:55:19;5.95;;;3.92;;
53253;SDS011;39148;53.332;6.922;2022-12-19T11:57:48;7.35;;;4.57;;
53253;SDS011;39148;53.332;6.922;2022-12-19T12:00:21;6.90;;;4.85;;
53253;SDS011;39148;53.332;6.922;2022-12-19T12:10:37;6.70;;;4.07;;
53253;SDS011;39148;53.332;6.922;2022-12-19T12:13:15;7.43;;;4.72;;
53253;SDS011;39148;53.332;6.922;2022-12-19T12:18:39;6.28;;;4.18;;
53253;SDS011;39148;53.332;6.922;2022-12-19T12:24:14;5.90;;;3.70;;
53253;SDS011;39148;53.332;6.922;2022-12-19T12:26:32;7.22;;;4.38;;
53253;SDS011;39148;53.332;6.922;2022-12-19T12:29:14;6.80;;;4.20;;
53253;SDS011;39148;53.332;6.922;2022-12-19T12:37:23;6.32;;;4.00;;
53253;SDS011;39148;53.332;6.922;2022-12-19T12:44:42;7.40;;;4.40;;
53253;SDS011;39148;53.332;6.922;2022-12-19T12:47:14;6.00;;;4.00;;
53253;SDS011;39148;53.332;6.922;2022-12-19T12:52:30;6.53;;;3.65;;
53253;SDS011;39148;53.332;6.922;2022-12-19T12:54:52;7.15;;;3.63;;
53253;SDS011;39148;53.332;6.922;2022-12-19T12:57:32;7.43;;;3.95;;
53253;SDS011;39148;53.332;6.922;2022-12-19T13:02:45;6.35;;;3.35;;
53253;SDS011;39148;53.332;6.922;2022-12-19T13:05:23;7.28;;;3.53;;
53253;SDS011;39148;53.332;6.922;2022-12-19T13:07:51;6.15;;;3.90;;
53253;SDS011;39148;53.332;6.922;2022-12-19T13:22:43;7.50;;;3.90;;
53253;SDS011;39148;53.332;6.922;2022-12-19T13:25:26;5.75;;;3.47;;
53253;SDS011;39148;53.332;6.922;2022-12-19T13:30:29;5.88;;;3.63;;
53253;SDS011;39148;53.332;6.922;2022-12-19T13:43:11;5.47;;;3.78;;
53253;SDS011;39148;53.332;6.922;2022-12-19T13:48:31;7.83;;;3.40;;
53253;SDS011;39148;53.332;6.922;2022-12-19T13:51:06;8.43;;;3.83;;
53253;SDS011;39148;53.332;6.922;2022-12-19T13:53:36;5.53;;;3.35;;
53253;SDS011;39148;53.332;6.922;2022-12-19T13:56:13;5.95;;;3.58;;
53253;SDS011;39148;53.332;6.922;2022-12-19T14:01:26;6.00;;;3.60;;
53253;SDS011;39148;53.332;6.922;2022-12-19T14:03:54;6.15;;;3.60;;
53253;SDS011;39148;53.332;6.922;2022-12-19T14:06:28;5.93;;;3.42;;
53253;SDS011;39148;53.332;6.922;2022-12-19T14:09:03;5.72;;;3.67;;
53253;SDS011;39148;53.332;6.922;2022-12-19T14:11:30;6.63;;;3.40;;
53253;SDS011;39148;53.332;6.922;2022-12-19T14:13:57;6.32;;;3.63;;
53253;SDS011;39148;53.332;6.922;2022-12-19T14:16:43;6.82;;;3.97;;
53253;SDS011;39148;53.332;6.922;2022-12-19T14:19:16;6.35;;;3.50;;
53253;SDS011;39148;53.332;6.922;2022-12-19T14:21:43;6.70;;;3.40;;
53253;SDS011;39148;53.332;6.922;2022-12-19T14:26:38;5.63;;;3.22;;
53253;SDS011;39148;53.332;6.922;2022-12-19T14:29:05;5.80;;;3.45;;
53253;SDS011;39148;53.332;6.922;2022-12-19T14:31:33;6.50;;;3.42;;
53253;SDS011;39148;53.332;6.922;2022-12-19T14:34:02;5.20;;;3.20;;
53253;SDS011;39148;53.332;6.922;2022-12-19T14:36:29;5.28;;;3.70;;
53253;SDS011;39148;53.332;6.922;2022-12-19T14:38:57;5.78;;;3.53;;
53253;SDS011;39148;53.332;6.922;2022-12-19T14:44:13;6.50;;;3.67;;
53253;SDS011;39148;53.332;6.922;2022-12-19T14:46:40;6.53;;;3.72;;
53253;SDS011;39148;53.332;6.922;2022-12-19T14:49:23;5.18;;;3.33;;
53253;SDS011;39148;53.332;6.922;2022-12-19T14:51:49;5.75;;;3.20;;
53253;SDS011;39148;53.332;6.922;2022-12-19T14:54:17;5.47;;;3.55;;
53253;SDS011;39148;53.332;6.922;2022-12-19T15:01:57;5.50;;;3.35;;
53253;SDS011;39148;53.332;6.922;2022-12-19T15:04:25;5.63;;;3.35;;
53253;SDS011;39148;53.332;6.922;2022-12-19T15:06:56;5.75;;;3.33;;
53253;SDS011;39148;53.332;6.922;2022-12-19T15:09:24;7.10;;;3.67;;
53253;SDS011;39148;53.332;6.922;2022-12-19T15:11:54;7.13;;;3.60;;
53253;SDS011;39148;53.332;6.922;2022-12-19T15:14:43;5.80;;;3.40;;
53253;SDS011;39148;53.332;6.922;2022-12-19T15:17:20;5.33;;;3.43;;
53253;SDS011;39148;53.332;6.922;2022-12-19T15:19:47;6.38;;;3.70;;
53253;SDS011;39148;53.332;6.922;2022-12-19T15:22:13;5.63;;;3.15;;
53253;SDS011;39148;53.332;6.922;2022-12-19T15:24:39;6.40;;;3.80;;
53253;SDS011;39148;53.332;6.922;2022-12-19T15:27:15;7.22;;;3.22;;
53253;SDS011;39148;53.332;6.922;2022-12-19T15:29:42;5.63;;;3.17;;
53253;SDS011;39148;53.332;6.922;2022-12-19T15:32:12;6.22;;;3.38;;
53253;SDS011;39148;53.332;6.922;2022-12-19T15:34:39;5.15;;;3.38;;
53253;SDS011;39148;53.332;6.922;2022-12-19T15:37:10;6.07;;;3.20;;
53253;SDS011;39148;53.332;6.922;2022-12-19T15:39:37;5.57;;;3.00;;
53253;SDS011;39148;53.332;6.922;2022-12-19T15:42:03;5.68;;;3.38;;
53253;SDS011;39148;53.332;6.922;2022-12-19T15:44:33;5.35;;;3.28;;
53253;SDS011;39148;53.332;6.922;2022-12-19T15:47:01;6.57;;;3.20;;
53253;SDS011;39148;53.332;6.922;2022-12-19T15:49:28;6.53;;;3.33;;
53253;SDS011;39148;53.332;6.922;2022-12-19T15:51:55;5.60;;;3.40;;
53253;SDS011;39148;53.332;6.922;2022-12-19T15:54:21;5.05;;;3.08;;
53253;SDS011;39148;53.332;6.922;2022-12-19T15:56:49;5.50;;;3.13;;
53253;SDS011;39148;53.332;6.922;2022-12-19T15:59:21;5.60;;;3.08;;
53253;SDS011;39148;53.332;6.922;2022-12-19T16:01:48;5.15;;;2.90;;
53253;SDS011;39148;53.332;6.922;2022-12-19T16:04:14;5.65;;;3.00;;
53253;SDS011;39148;53.332;6.922;2022-12-19T16:06:40;4.80;;;2.97;;
53253;SDS011;39148;53.332;6.922;2022-12-19T16:09:40;5.47;;;3.20;;
53253;SDS011;39148;53.332;6.922;2022-12-19T16:11:58;5.35;;;3.17;;
53253;SDS011;39148;53.332;6.922;2022-12-19T16:14:24;5.65;;;3.00;;
53253;SDS011;39148;53.332;6.922;2022-12-19T16:16:51;5.20;;;3.20;;
53253;SDS011;39148;53.332;6.922;2022-12-19T16:19:22;5.80;;;3.00;;
53253;SDS011;39148;53.332;6.922;2022-12-19T16:21:48;5.43;;;3.13;;
53253;SDS011;39148;53.332;6.922;2022-12-19T16:24:15;5.95;;;3.35;;
53253;SDS011;39148;53.332;6.922;2022-12-19T16:26:41;6.75;;;2.95;;
53253;SDS011;39148;53.332;6.922;2022-12-19T16:29:26;5.85;;;3.35;;
53253;SDS011;39148;53.332;6.922;2022-12-19T16:31:53;5.60;;;3.30;;
53253;SDS011;39148;53.332;6.922;2022-12-19T16:34:20;4.95;;;3.13;;
53253;SDS011;39148;53.332;6.922;2022-12-19T16:36:47;5.22;;;2.47;;
53253;SDS011;39148;53.332;6.922;2022-12-19T16:39:13;6.93;;;3.08;;
53253;SDS011;39148;53.332;6.922;2022-12-19T16:41:39;6.07;;;3.20;;
53253;SDS011;39148;53.332;6.922;2022-12-19T16:44:17;5.93;;;3.67;;
53253;SDS011;39148;53.332;6.922;2022-12-19T16:46:44;5.70;;;3.13;;
53253;SDS011;39148;53.332;6.922;2022-12-19T16:49:28;5.75;;;3.30;;
53253;SDS011;39148;53.332;6.922;2022-12-19T16:51:55;6.85;;;3.35;;
53253;SDS011;39148;53.332;6.922;2022-12-19T16:54:21;5.53;;;3.47;;
53253;SDS011;39148;53.332;6.922;2022-12-19T16:56:48;5.55;;;3.25;;
53253;SDS011;39148;53.332;6.922;2022-12-19T16:59:19;5.82;;;3.30;;
53253;SDS011;39148;53.332;6.922;2022-12-19T17:04:15;5.47;;;3.03;;
53253;SDS011;39148;53.332;6.922;2022-12-19T17:06:43;5.93;;;3.25;;
53253;SDS011;39148;53.332;6.922;2022-12-19T17:09:13;5.97;;;3.20;;
53253;SDS011;39148;53.332;6.922;2022-12-19T17:11:40;5.72;;;3.03;;
53253;SDS011;39148;53.332;6.922;2022-12-19T17:14:11;5.97;;;3.47;;
53253;SDS011;39148;53.332;6.922;2022-12-19T17:16:39;6.13;;;3.85;;
53253;SDS011;39148;53.332;6.922;2022-12-19T17:19:04;6.45;;;3.50;;
53253;SDS011;39148;53.332;6.922;2022-12-19T17:21:30;6.50;;;3.72;;
53253;SDS011;39148;53.332;6.922;2022-12-19T17:23:56;5.53;;;3.25;;
53253;SDS011;39148;53.332;6.922;2022-12-19T17:26:22;5.70;;;3.33;;